Old Mystic, Connecticut
Current Conditions -  °F | °C
As of 11:09 AM on Saturday 20 Dec 2014 (Local Time) from KGON Reporting Station
Haze Haze  
Wind Chill: 26°   Ceiling: 3000
Heat Index: 31°   Visibility: 6mi
Dew Point: 23°   Wind: 5mph
Humidity: 72%   Direction: 340°NNW
Pressure: 30.26"   Gusts: NA
Location:  41.39°N, 71.96°W
Report Text: KGON 201609Z 34004KT 6SM HZ OVC030 M01/M05 A3026 RMK AO2 T10061050
Loading
Personal Weather Stations






























Interactive Weather Map New forecast layout! Learn more

10-Day Weather Forecast

Advertisements
Track Severe Weather on mobile